Time;durP1;ratioP1;P1;durP2;ratioP2;P2;SDS_P1;SDS_P2;PMS_P1;PMS_P2;Temp;Humidity;BMP_temperature;BMP_pressure;BME280_temperature;BME280_humidity;BME280_pressure;Samples;Min_cycle;Max_cycle;Signal;HPM_P1;HPM_P2
2023/06/20 00:01:34;;;;;;;6.80;5.68;;;22.20;60.10;;;;;;5115762;28;20592;-77
2023/06/20 00:04:01;;;;;;;7.63;5.97;;;22.20;60.20;;;;;;5115410;28;20226;-77
2023/06/20 00:06:28;;;;;;;8.90;6.22;;;22.20;60.20;;;;;;5115645;28;20238;-77
2023/06/20 00:08:55;;;;;;;7.15;5.63;;;22.20;60.10;;;;;;5115919;28;20254;-77
2023/06/20 00:11:22;;;;;;;10.48;6.00;;;22.20;60.20;;;;;;5115619;28;20217;-77
2023/06/20 00:13:52;;;;;;;7.18;5.78;;;22.20;60.10;;;;;;5115456;28;20264;-77
2023/06/20 00:16:20;;;;;;;7.63;5.80;;;22.10;60.10;;;;;;5097645;28;20194;-77
2023/06/20 00:18:53;;;;;;;8.98;6.30;;;22.10;60.00;;;;;;5097359;28;20193;-77
2023/06/20 00:21:25;;;;;;;8.57;6.00;;;22.10;60.10;;;;;;5115319;28;20186;-77
2023/06/20 00:23:53;;;;;;;6.68;5.38;;;22.10;60.10;;;;;;5115109;28;20225;-77
2023/06/20 00:26:21;;;;;;;8.55;6.22;;;22.10;60.10;;;;;;5115403;28;20195;-77
2023/06/20 00:28:48;;;;;;;9.52;6.60;;;22.10;60.10;;;;;;5114972;28;20663;-77
2023/06/20 00:31:17;;;;;;;7.50;5.97;;;22.20;60.10;;;;;;5115279;28;20239;-77
2023/06/20 00:33:44;;;;;;;8.32;5.97;;;22.10;60.10;;;;;;5096778;28;20256;-76
2023/06/20 00:36:12;;;;;;;9.52;6.25;;;22.10;60.90;;;;;;5115219;28;20246;-76
2023/06/20 00:38:39;;;;;;;7.13;5.57;;;22.10;60.10;;;;;;5115203;28;20189;-77
2023/06/20 00:41:06;;;;;;;9.77;6.50;;;22.20;60.20;;;;;;5114831;28;20239;-78
2023/06/20 00:43:33;;;;;;;7.30;6.32;;;22.10;60.10;;;;;;5114655;28;20217;-77
2023/06/20 00:46:00;;;;;;;7.78;5.90;;;22.10;60.10;;;;;;5115216;28;20261;-77
2023/06/20 00:48:29;;;;;;;8.52;6.22;;;22.10;60.10;;;;;;5114783;28;20209;-77
2023/06/20 00:50:56;;;;;;;7.05;5.75;;;22.20;60.20;;;;;;5114983;28;20217;-77
2023/06/20 00:53:24;;;;;;;8.70;6.03;;;22.10;60.10;;;;;;5096444;28;20225;-77
2023/06/20 00:55:51;;;;;;;9.85;6.28;;;22.10;60.10;;;;;;5114578;28;20731;-77
2023/06/20 00:58:19;;;;;;;7.53;5.97;;;22.10;60.20;;;;;;5115036;28;20249;-77
2023/06/20 01:00:46;;;;;;;7.55;5.90;;;22.10;60.20;;;;;;5114414;28;20190;-77
2023/06/20 01:03:14;;;;;;;8.32;6.13;;;22.10;60.20;;;;;;5114961;28;20362;-77
2023/06/20 01:05:50;;;;;;;7.60;6.22;;;22.10;60.20;;;;;;5114712;28;20189;-77
2023/06/20 01:08:29;;;;;;;7.88;6.22;;;22.10;60.20;;;;;;5114563;28;20212;-76
2023/06/20 01:11:02;;;;;;;9.65;6.40;;;22.10;60.20;;;;;;5114535;28;20211;-77
2023/06/20 01:13:42;;;;;;;9.60;6.35;;;22.10;60.20;;;;;;5114180;28;20236;-76
2023/06/20 01:16:17;;;;;;;8.27;6.13;;;22.10;60.20;;;;;;5114357;28;20690;-77
2023/06/20 01:18:54;;;;;;;10.50;6.93;;;22.10;60.30;;;;;;5114489;28;20188;-77
2023/06/20 01:21:30;;;;;;;8.77;5.82;;;22.10;60.30;;;;;;5113937;28;20686;-77
2023/06/20 01:24:05;;;;;;;8.50;5.60;;;22.10;60.30;;;;;;5114203;28;20236;-77
2023/06/20 01:26:38;;;;;;;8.40;6.15;;;22.10;60.30;;;;;;5113715;28;20642;-77
2023/06/20 01:29:14;;;;;;;7.05;5.45;;;22.10;60.30;;;;;;5114197;28;20189;-77
2023/06/20 01:31:48;;;;;;;8.10;6.00;;;22.10;60.30;;;;;;5113733;28;20265;-77
2023/06/20 01:34:17;;;;;;;8.88;6.57;;;22.10;60.30;;;;;;5113654;28;20217;-77
2023/06/20 01:36:51;;;;;;;9.45;6.07;;;22.10;60.30;;;;;;5114080;28;20249;-77
2023/06/20 01:39:37;;;;;;;9.25;5.95;;;22.10;60.40;;;;;;5113632;28;20635;-77
2023/06/20 01:42:05;;;;;;;9.52;6.40;;;22.10;60.40;;;;;;5079432;28;20216;-77
2023/06/20 01:44:34;;;;;;;7.68;5.43;;;22.10;60.50;;;;;;5113637;28;20185;-77
2023/06/20 01:47:04;;;;;;;7.93;5.82;;;22.10;60.50;;;;;;5113501;28;20267;-77
2023/06/20 01:49:32;;;;;;;8.80;5.85;;;22.10;60.50;;;;;;5113397;28;20190;-77
2023/06/20 01:52:01;;;;;;;8.82;6.00;;;22.10;60.60;;;;;;5113574;28;20209;-77
2023/06/20 01:54:32;;;;;;;8.20;5.85;;;22.10;60.50;;;;;;5112906;28;20212;-78
2023/06/20 01:57:02;;;;;;;7.15;5.35;;;22.10;60.60;;;;;;5109658;28;20248;-77
2023/06/20 01:59:31;;;;;;;8.75;6.20;;;22.10;60.50;;;;;;5113531;28;20317;-77
2023/06/20 02:02:00;;;;;;;8.30;6.07;;;22.10;60.60;;;;;;5113536;28;20263;-78
2023/06/20 02:04:28;;;;;;;11.27;6.10;;;22.10;60.60;;;;;;5095118;28;20201;-78
2023/06/20 02:06:57;;;;;;;7.60;5.80;;;22.10;60.60;;;;;;5113411;28;20213;-77
2023/06/20 02:09:26;;;;;;;8.38;5.95;;;22.10;60.80;;;;;;5113177;28;20659;-77
2023/06/20 02:11:55;;;;;;;8.35;5.72;;;22.10;60.70;;;;;;5112971;28;20684;-77
2023/06/20 02:14:23;;;;;;;8.32;5.90;;;22.10;60.70;;;;;;5112995;28;20308;-77
2023/06/20 02:16:51;;;;;;;8.32;5.65;;;22.10;60.70;;;;;;5112958;28;20217;-77
2023/06/20 02:19:19;;;;;;;9.40;5.65;;;22.10;60.80;;;;;;5113184;28;20280;-77
2023/06/20 02:21:48;;;;;;;8.80;5.65;;;22.10;60.80;;;;;;5112853;28;20721;-77
2023/06/20 02:24:20;;;;;;;7.75;5.63;;;22.10;60.80;;;;;;5112915;28;20239;-77
2023/06/20 02:26:48;;;;;;;9.63;6.25;;;22.10;60.90;;;;;;5113094;28;20209;-77
2023/06/20 02:29:17;;;;;;;7.97;6.13;;;22.10;60.80;;;;;;5113268;28;20288;-77
2023/06/20 02:31:47;;;;;;;6.85;5.32;;;22.10;60.80;;;;;;5112956;28;20268;-77
2023/06/20 02:34:19;;;;;;;8.48;6.10;;;22.10;61.00;;;;;;5112968;28;20210;-77
2023/06/20 02:36:48;;;;;;;7.53;5.63;;;22.10;61.00;;;;;;5113090;28;20204;-77
2023/06/20 02:39:15;;;;;;;9.57;5.75;;;22.10;61.00;;;;;;5112690;28;20281;-77
2023/06/20 02:41:42;;;;;;;6.28;5.55;;;22.10;61.10;;;;;;5112487;28;20276;-77
2023/06/20 02:44:10;;;;;;;6.85;5.10;;;22.10;61.10;;;;;;5108566;28;20185;-77
2023/06/20 02:46:50;;;;;;;8.50;5.68;;;22.10;61.10;;;;;;5077890;28;20193;-76
2023/06/20 02:49:23;;;;;;;6.10;4.80;;;22.10;61.20;;;;;;5094474;28;20197;-76
2023/06/20 02:52:02;;;;;;;7.90;5.35;;;22.10;61.10;;;;;;5112753;28;20303;-77
2023/06/20 02:54:37;;;;;;;7.35;5.95;;;22.10;61.20;;;;;;5094429;28;20726;-77
2023/06/20 02:57:11;;;;;;;9.80;5.60;;;22.10;61.20;;;;;;5078408;28;20217;-77
2023/06/20 02:59:39;;;;;;;7.40;5.90;;;22.10;61.30;;;;;;5112558;28;20322;-77
2023/06/20 03:02:10;;;;;;;6.53;5.40;;;22.10;61.40;;;;;;5112820;28;20235;-77
2023/06/20 03:04:38;;;;;;;7.30;5.53;;;22.10;61.40;;;;;;5112474;28;20281;-77
2023/06/20 03:07:07;;;;;;;7.82;5.28;;;22.10;61.40;;;;;;5094816;28;20299;-76
2023/06/20 03:09:36;;;;;;;10.50;5.78;;;22.10;61.40;;;;;;5116938;28;20190;-77
2023/06/20 03:12:05;;;;;;;6.70;5.30;;;22.10;62.30;;;;;;5113608;28;20311;-76
2023/06/20 03:14:32;;;;;;;10.00;5.97;;;22.10;61.50;;;;;;5116324;28;20690;-77
2023/06/20 03:17:01;;;;;;;6.53;5.20;;;22.00;61.40;;;;;;5116837;28;20213;-77
2023/06/20 03:19:32;;;;;;;6.85;5.55;;;22.10;61.60;;;;;;5116795;28;20192;-77
2023/06/20 03:22:00;;;;;;;6.93;5.00;;;22.10;61.70;;;;;;5097725;28;20759;-77
2023/06/20 03:24:27;;;;;;;6.70;5.30;;;22.10;61.80;;;;;;5116528;28;20729;-77
2023/06/20 03:26:54;;;;;;;8.25;5.32;;;22.10;61.90;;;;;;5098167;28;20303;-77
2023/06/20 03:29:21;;;;;;;6.07;5.47;;;22.10;61.90;;;;;;5115936;28;20714;-77
2023/06/20 03:31:48;;;;;;;12.73;5.15;;;22.10;61.90;;;;;;5116438;28;20272;-77
2023/06/20 03:34:15;;;;;;;7.20;5.15;;;22.10;62.00;;;;;;5115947;28;20703;-77
2023/06/20 03:36:45;;;;;;;5.57;4.80;;;22.10;62.10;;;;;;5116343;28;20189;-77
2023/06/20 03:39:12;;;;;;;7.65;5.55;;;22.10;62.10;;;;;;5098276;28;20238;-77
2023/06/20 03:41:39;;;;;;;7.03;5.70;;;22.10;62.20;;;;;;5115860;28;20568;-77
2023/06/20 03:44:06;;;;;;;7.18;5.43;;;22.10;62.30;;;;;;5116184;28;20276;-77
2023/06/20 03:46:33;;;;;;;7.57;5.97;;;22.10;62.40;;;;;;5116190;28;20190;-77
2023/06/20 03:49:00;;;;;;;7.15;5.38;;;22.10;62.40;;;;;;5098221;28;20215;-77
2023/06/20 03:51:27;;;;;;;7.50;5.63;;;22.10;62.40;;;;;;5100261;27;20561;-77
2023/06/20 03:53:56;;;;;;;6.82;5.18;;;22.10;62.40;;;;;;5109174;28;20235;-77
2023/06/20 03:56:23;;;;;;;6.95;5.25;;;22.10;62.40;;;;;;5115892;28;20181;-77
2023/06/20 03:58:50;;;;;;;7.10;5.38;;;22.10;62.40;;;;;;5115705;28;20296;-77
2023/06/20 04:01:17;;;;;;;6.30;4.80;;;22.10;62.40;;;;;;5097545;28;20738;-77
2023/06/20 04:03:44;;;;;;;6.57;5.85;;;22.10;62.50;;;;;;5115999;28;20223;-77
2023/06/20 04:06:11;;;;;;;6.50;5.30;;;22.10;62.40;;;;;;5115884;28;20223;-77
2023/06/20 04:08:39;;;;;;;8.38;5.50;;;22.10;62.50;;;;;;5115846;28;20217;-77
2023/06/20 04:11:07;;;;;;;6.43;5.20;;;22.10;62.50;;;;;;5115713;28;20181;-77
2023/06/20 04:13:34;;;;;;;6.70;5.47;;;22.10;62.50;;;;;;5115444;28;20267;-76
2023/06/20 04:16:01;;;;;;;6.32;5.70;;;22.10;62.50;;;;;;5115409;28;20200;-77
2023/06/20 04:18:28;;;;;;;7.45;5.00;;;22.10;62.50;;;;;;5096813;28;20216;-77
2023/06/20 04:20:55;;;;;;;6.20;5.05;;;22.10;62.50;;;;;;5115586;28;20185;-77
2023/06/20 04:23:22;;;;;;;7.35;5.38;;;22.10;62.50;;;;;;5115066;28;20805;-77
2023/06/20 04:25:49;;;;;;;6.53;5.50;;;22.10;62.60;;;;;;5115422;28;20276;-77
2023/06/20 04:28:18;;;;;;;5.90;5.03;;;22.10;62.60;;;;;;5115500;28;20308;-77
2023/06/20 04:30:45;;;;;;;6.63;5.68;;;22.10;62.60;;;;;;5115361;28;20191;-77
2023/06/20 04:33:12;;;;;;;7.28;5.28;;;22.10;62.60;;;;;;5115384;28;20324;-77
2023/06/20 04:35:40;;;;;;;7.75;5.80;;;22.10;62.60;;;;;;5115404;28;20277;-77
2023/06/20 04:38:07;;;;;;;6.47;5.45;;;22.10;62.60;;;;;;5115363;28;20213;-77
2023/06/20 04:40:35;;;;;;;6.75;5.25;;;22.10;62.60;;;;;;5114785;28;20665;-77
2023/06/20 04:43:03;;;;;;;7.32;5.43;;;22.10;62.60;;;;;;5097087;28;20305;-77
2023/06/20 04:45:38;;;;;;;8.27;5.85;;;22.10;62.60;;;;;;5115155;28;20189;-77
2023/06/20 04:48:05;;;;;;;6.72;5.10;;;22.10;62.60;;;;;;5112082;28;20621;-77
2023/06/20 04:50:33;;;;;;;6.28;5.18;;;22.10;62.60;;;;;;5114594;28;20639;-77
2023/06/20 04:53:00;;;;;;;6.10;4.75;;;22.10;62.60;;;;;;5114657;28;20590;-77
2023/06/20 04:55:28;;;;;;;6.53;4.85;;;22.10;62.60;;;;;;5096885;28;20208;-77
2023/06/20 04:57:56;;;;;;;6.68;4.80;;;22.10;62.80;;;;;;5114527;28;20300;-77
2023/06/20 05:00:23;;;;;;;6.07;5.10;;;22.10;62.90;;;;;;5114738;28;20193;-77
2023/06/20 05:02:52;;;;;;;5.93;5.07;;;22.10;62.60;;;;;;5114543;28;20304;-77
2023/06/20 05:05:19;;;;;;;7.68;5.35;;;22.10;62.70;;;;;;5114602;28;20229;-77
2023/06/20 05:07:46;;;;;;;6.05;5.10;;;22.10;63.10;;;;;;5110341;28;20216;-77
2023/06/20 05:10:14;;;;;;;6.05;4.82;;;22.10;62.80;;;;;;5114632;28;20187;-77
2023/06/20 05:12:40;;;;;;;7.95;5.13;;;22.10;63.10;;;;;;5114284;28;20213;-77
2023/06/20 05:15:09;;;;;;;5.82;5.10;;;22.10;63.10;;;;;;5114400;28;20300;-78
2023/06/20 05:17:35;;;;;;;7.82;4.80;;;22.10;63.20;;;;;;5114243;28;20586;-77
2023/06/20 05:20:06;;;;;;;7.45;5.30;;;22.10;63.10;;;;;;5113948;28;20185;-77
2023/06/20 05:22:33;;;;;;;5.00;4.25;;;22.10;63.10;;;;;;5114218;28;20213;-77
2023/06/20 05:25:00;;;;;;;7.13;4.50;;;22.10;63.10;;;;;;5114249;28;20189;-77
2023/06/20 05:27:27;;;;;;;7.10;5.00;;;22.00;63.00;;;;;;5114497;28;20224;-77
2023/06/20 05:29:55;;;;;;;7.32;4.40;;;22.10;63.30;;;;;;5114178;28;20285;-77
2023/06/20 05:32:22;;;;;;;8.20;4.47;;;22.10;63.20;;;;;;5114381;28;20585;-77
2023/06/20 05:34:49;;;;;;;6.03;4.47;;;22.10;63.20;;;;;;5113829;28;20209;-76
2023/06/20 05:37:17;;;;;;;5.80;4.50;;;22.10;64.20;;;;;;5113858;28;20219;-77
2023/06/20 05:39:44;;;;;;;6.22;4.65;;;22.10;63.50;;;;;;5114250;28;20268;-77
2023/06/20 05:42:11;;;;;;;6.22;4.75;;;22.10;63.50;;;;;;5113937;28;20296;-77
2023/06/20 05:44:39;;;;;;;9.38;4.93;;;22.10;63.40;;;;;;5113553;28;20277;-77
2023/06/20 05:47:06;;;;;;;6.65;4.75;;;22.10;63.40;;;;;;5113617;28;20277;-77
2023/06/20 05:49:34;;;;;;;5.55;4.68;;;22.10;63.40;;;;;;5113773;28;20272;-77
2023/06/20 05:52:01;;;;;;;5.30;4.15;;;22.10;64.10;;;;;;5114005;28;20190;-77
2023/06/20 05:54:29;;;;;;;5.97;4.35;;;22.10;63.50;;;;;;5095506;28;20217;-77
2023/06/20 05:56:56;;;;;;;5.65;3.85;;;22.10;63.40;;;;;;5113416;28;20552;-77
2023/06/20 05:59:23;;;;;;;7.80;4.63;;;22.10;63.40;;;;;;5113354;28;20192;-77
2023/06/20 06:01:50;;;;;;;4.75;4.20;;;22.10;63.50;;;;;;5113275;28;20273;-77
2023/06/20 06:04:17;;;;;;;6.35;4.20;;;22.10;63.50;;;;;;5113253;28;20726;-77
2023/06/20 06:06:45;;;;;;;4.45;3.83;;;22.10;63.50;;;;;;5113479;28;20225;-80
2023/06/20 06:15:14;;;;;;;4.32;3.60;;;22.10;63.20;;;;;;5111939;28;20311;-78
2023/06/20 06:17:41;;;;;;;4.97;4.18;;;22.20;63.40;;;;;;5095145;28;20213;-78
2023/06/20 06:25:40;;;;;;;6.20;3.83;;;22.20;63.10;;;;;;5153460;27;20202;-78
2023/06/20 06:36:38;;;;;;;7.35;3.97;;;22.20;62.70;;;;;;5131679;27;20199;-79
2023/06/20 06:41:49;;;;;;;9.55;3.92;;;22.20;62.80;;;;;;5053048;28;20711;-80
2023/06/20 06:44:17;;;;;;;5.68;4.05;;;22.20;63.00;;;;;;5074507;28;20261;-79
2023/06/20 06:49:28;;;;;;;5.90;3.80;;;22.20;63.30;;;;;;5072753;28;20205;-79
2023/06/20 06:51:58;;;;;;;5.22;3.55;;;22.30;63.60;;;;;;5069172;28;20193;-79
2023/06/20 06:54:25;;;;;;;8.43;4.10;;;22.30;63.40;;;;;;5051175;28;20229;-80
2023/06/20 06:56:54;;;;;;;5.28;3.92;;;22.30;63.90;;;;;;5040700;28;20399;-80
2023/06/20 07:02:15;;;;;;;5.15;3.92;;;22.30;63.50;;;;;;5018036;28;20239;-84
2023/06/20 07:04:45;;;;;;;7.85;3.42;;;22.30;63.90;;;;;;5011974;28;20500;-83
2023/06/20 07:09:57;;;;;;;7.35;3.75;;;22.40;63.80;;;;;;5010931;28;20203;-79
2023/06/20 07:15:06;;;;;;;4.72;3.63;;;22.30;64.70;;;;;;5052996;28;20244;-81
2023/06/20 07:17:35;;;;;;;6.68;3.65;;;22.40;63.70;;;;;;5061220;28;20237;-79
2023/06/20 07:20:06;;;;;;;7.43;3.58;;;22.40;63.60;;;;;;5054136;28;20202;-80
2023/06/20 07:22:34;;;;;;;7.72;3.40;;;22.40;63.70;;;;;;5059907;28;20253;-80
2023/06/20 07:25:01;;;;;;;5.07;3.63;;;22.40;63.90;;;;;;5041700;28;20268;-79
2023/06/20 07:27:28;;;;;;;8.38;3.78;;;22.50;63.60;;;;;;5064540;28;20311;-79
2023/06/20 07:29:55;;;;;;;6.35;3.83;;;22.50;64.20;;;;;;5067562;28;20201;-80
2023/06/20 07:32:23;;;;;;;8.90;3.70;;;22.50;63.60;;;;;;5047659;27;20215;-79
2023/06/20 07:34:51;;;;;;;9.05;3.50;;;22.50;63.50;;;;;;5096682;27;20724;-80
2023/06/20 07:37:19;;;;;;;8.13;3.47;;;22.50;63.50;;;;;;5138034;27;20272;-83
2023/06/20 07:39:46;;;;;;;5.55;3.15;;;22.60;63.60;;;;;;5128839;27;20199;-82
2023/06/20 08:07:27;;;;;;;10.52;3.10;;;22.80;64.20;;;;;;4971647;28;20693;-80
2023/06/20 08:09:54;;;;;;;5.63;3.17;;;22.90;64.40;;;;;;4977849;28;20209;-83
2023/06/20 08:25:00;;;;;;;13.07;3.28;;;23.10;64.80;;;;;;4899634;29;20245;-80
2023/06/20 08:30:40;;;;;;;9.15;3.45;;;23.20;64.40;;;;;;4871064;29;20206;-80
2023/06/20 08:36:10;;;;;;;10.13;3.38;;;23.20;63.80;;;;;;4945523;28;20346;-80
2023/06/20 08:41:18;;;;;;;3.78;2.75;;;23.20;63.70;;;;;;4963940;28;20213;-80
2023/06/20 08:46:31;;;;;;;4.43;2.85;;;23.30;63.70;;;;;;4997613;28;20212;-80
2023/06/20 08:48:58;;;;;;;6.90;2.70;;;23.30;63.70;;;;;;4979599;28;20595;-80
2023/06/20 08:51:29;;;;;;;3.22;2.80;;;23.30;64.50;;;;;;4990037;28;20197;-80
2023/06/20 08:53:57;;;;;;;3.80;2.80;;;23.30;63.40;;;;;;5050685;28;20380;-79
2023/06/20 08:56:25;;;;;;;4.88;2.92;;;23.30;63.30;;;;;;5081412;28;20228;-80
2023/06/20 08:58:52;;;;;;;3.45;2.63;;;23.40;63.30;;;;;;5113462;27;20708;-80
2023/06/20 09:01:19;;;;;;;6.10;2.60;;;23.40;63.20;;;;;;5140796;27;20238;-79
2023/06/20 09:06:37;;;;;;;6.35;2.55;;;23.40;63.10;;;;;;5142160;27;20938;-80
2023/06/20 09:09:09;;;;;;;4.15;3.03;;;23.40;63.10;;;;;;5139726;27;20227;-80
2023/06/20 09:11:40;;;;;;;5.57;2.60;;;23.40;63.00;;;;;;5145956;27;20541;-80
2023/06/20 09:14:08;;;;;;;4.38;2.90;;;23.40;63.00;;;;;;5138937;27;20588;-80
2023/06/20 09:16:37;;;;;;;4.05;3.05;;;23.40;62.90;;;;;;5122496;27;20196;-83
2023/06/20 09:19:14;;;;;;;5.15;2.50;;;23.40;62.80;;;;;;5145933;27;20233;-81
2023/06/20 09:24:41;;;;;;;4.82;2.78;;;23.40;62.90;;;;;;5134339;27;21097;-81
2023/06/20 09:27:08;;;;;;;5.43;2.70;;;23.40;62.90;;;;;;5145888;27;20278;-80
2023/06/20 09:29:49;;;;;;;3.03;2.40;;;23.40;62.80;;;;;;5138085;27;20215;-79
2023/06/20 09:32:20;;;;;;;12.63;2.58;;;23.40;62.80;;;;;;5138900;27;20230;-80
2023/06/20 09:34:50;;;;;;;4.57;2.70;;;23.50;62.80;;;;;;5139305;27;20219;-80
2023/06/20 09:37:17;;;;;;;3.85;2.70;;;23.50;62.70;;;;;;5143603;27;20219;-80
2023/06/20 09:42:28;;;;;;;3.50;2.50;;;23.60;62.60;;;;;;5142242;27;20199;-80
2023/06/20 09:44:56;;;;;;;4.97;2.47;;;23.60;62.60;;;;;;5142795;27;20272;-79
2023/06/20 09:47:23;;;;;;;5.03;2.60;;;23.60;62.70;;;;;;5137326;27;20310;-80
2023/06/20 09:49:57;;;;;;;3.97;2.42;;;23.60;62.60;;;;;;5143723;27;20223;-79
2023/06/20 09:52:33;;;;;;;5.10;2.75;;;23.70;62.50;;;;;;5128316;27;20195;-79
2023/06/20 09:55:01;;;;;;;5.20;2.65;;;23.60;62.20;;;;;;5126093;27;20212;-79
2023/06/20 09:57:34;;;;;;;5.70;2.22;;;23.70;62.30;;;;;;5124854;27;20188;-80
2023/06/20 10:00:04;;;;;;;5.85;2.80;;;23.70;62.40;;;;;;5140359;27;20206;-79
2023/06/20 10:02:32;;;;;;;13.18;2.83;;;23.60;62.10;;;;;;5116587;27;20197;-78
2023/06/20 10:05:01;;;;;;;5.50;2.78;;;23.70;62.20;;;;;;5142230;27;20579;-78
2023/06/20 10:07:30;;;;;;;4.32;3.13;;;23.70;62.20;;;;;;5144073;27;20197;-77
2023/06/20 10:09:59;;;;;;;3.83;2.88;;;23.70;62.00;;;;;;5147605;27;20191;-78
2023/06/20 10:12:27;;;;;;;4.32;2.72;;;23.70;61.80;;;;;;5150305;27;20190;-77
2023/06/20 10:14:56;;;;;;;4.88;3.03;;;23.70;61.70;;;;;;5144063;27;20355;-77
2023/06/20 10:17:31;;;;;;;3.72;2.80;;;23.70;61.70;;;;;;5148790;27;20196;-76
2023/06/20 10:20:00;;;;;;;4.32;2.80;;;23.70;61.60;;;;;;5133311;27;20230;-77
2023/06/20 10:22:35;;;;;;;4.22;2.70;;;23.70;61.50;;;;;;5144647;27;20298;-77
2023/06/20 10:25:11;;;;;;;3.78;3.00;;;23.70;61.40;;;;;;5143949;27;20207;-78
2023/06/20 10:27:42;;;;;;;6.43;3.67;;;23.70;61.30;;;;;;5127494;27;20207;-77
2023/06/20 10:30:12;;;;;;;4.13;3.10;;;23.70;61.30;;;;;;5115344;27;20201;-78
2023/06/20 10:33:10;;;;;;;3.47;2.60;;;23.70;61.20;;;;;;5125120;27;20669;-78
2023/06/20 10:35:48;;;;;;;6.63;3.25;;;23.70;61.10;;;;;;5047761;28;20226;-77
2023/06/20 10:38:15;;;;;;;3.20;2.90;;;23.70;61.00;;;;;;5065394;28;20214;-77
2023/06/20 10:40:43;;;;;;;3.80;2.70;;;23.70;61.00;;;;;;5056876;28;20704;-77
2023/06/20 10:43:16;;;;;;;5.35;2.83;;;23.70;61.10;;;;;;5056158;28;20225;-77
2023/06/20 10:45:53;;;;;;;3.47;2.88;;;23.70;61.00;;;;;;5047379;28;20757;-77
2023/06/20 10:48:20;;;;;;;5.07;2.60;;;23.70;60.90;;;;;;5042593;28;20582;-77
2023/06/20 10:50:49;;;;;;;3.63;2.67;;;23.70;60.90;;;;;;5044404;28;20195;-78
2023/06/20 10:53:16;;;;;;;4.22;2.47;;;23.70;61.70;;;;;;5057185;28;20339;-77
2023/06/20 10:55:43;;;;;;;3.13;2.58;;;23.70;60.90;;;;;;5043765;28;20880;-77
2023/06/20 10:58:10;;;;;;;3.17;2.65;;;23.70;60.80;;;;;;5045234;28;20310;-77
2023/06/20 11:00:37;;;;;;;3.65;2.55;;;23.70;60.90;;;;;;5044724;28;20286;-77
2023/06/20 11:03:05;;;;;;;5.40;2.30;;;23.70;60.80;;;;;;5042697;28;20191;-78
2023/06/20 11:05:32;;;;;;;3.40;2.40;;;23.70;60.80;;;;;;5064007;28;20213;-77
2023/06/20 11:08:03;;;;;;;4.07;2.50;;;23.70;60.80;;;;;;5052799;28;20685;-77
2023/06/20 11:10:32;;;;;;;4.30;2.53;;;23.70;60.70;;;;;;5048483;28;20261;-78
2023/06/20 11:13:01;;;;;;;4.05;2.67;;;23.70;60.70;;;;;;5100319;27;20304;-77
2023/06/20 11:15:30;;;;;;;5.05;2.65;;;23.70;61.50;;;;;;5128113;27;20204;-78
2023/06/20 11:17:57;;;;;;;3.97;2.60;;;23.70;60.70;;;;;;5136272;27;20295;-78
2023/06/20 11:20:26;;;;;;;3.47;2.33;;;23.70;60.70;;;;;;5139467;27;20661;-77
2023/06/20 11:22:54;;;;;;;4.63;2.60;;;23.70;60.70;;;;;;5140106;27;20314;-77
2023/06/20 11:25:25;;;;;;;2.72;2.20;;;23.70;60.70;;;;;;5118743;28;20709;-77
2023/06/20 11:27:52;;;;;;;3.05;2.35;;;23.70;60.70;;;;;;5133790;27;20728;-77
2023/06/20 11:30:29;;;;;;;5.15;2.65;;;23.70;60.70;;;;;;5122363;27;20193;-79
2023/06/20 11:33:01;;;;;;;6.05;2.83;;;23.70;60.70;;;;;;5147357;27;20680;-77
2023/06/20 11:35:46;;;;;;;2.80;2.50;;;23.70;60.70;;;;;;5134630;27;20248;-77
2023/06/20 11:38:16;;;;;;;3.20;2.10;;;23.70;60.70;;;;;;5130974;27;20315;-77
2023/06/20 11:40:45;;;;;;;4.18;2.60;;;23.70;60.70;;;;;;5138026;27;20190;-78
2023/06/20 11:43:23;;;;;;;3.33;2.20;;;23.70;60.60;;;;;;5129636;27;20191;-77
2023/06/20 11:45:50;;;;;;;5.47;2.50;;;23.70;60.60;;;;;;5126993;27;20194;-78
2023/06/20 11:48:19;;;;;;;3.20;2.00;;;23.60;60.60;;;;;;5148371;27;20223;-77
2023/06/20 11:50:55;;;;;;;2.92;2.20;;;23.70;60.70;;;;;;5150741;27;20191;-78
2023/06/20 11:53:25;;;;;;;3.05;2.17;;;23.70;60.80;;;;;;5145739;27;20588;-78
2023/06/20 11:55:55;;;;;;;5.70;2.53;;;23.70;60.80;;;;;;5137743;27;20208;-78
2023/06/20 11:58:22;;;;;;;8.15;2.47;;;23.70;60.90;;;;;;5144794;27;20211;-77
2023/06/20 12:01:02;;;;;;;4.60;2.22;;;23.70;60.90;;;;;;5133023;27;20243;-78
2023/06/20 12:03:29;;;;;;;4.43;2.40;;;23.70;60.90;;;;;;5125204;27;20212;-80
2023/06/20 12:05:57;;;;;;;6.68;2.15;;;23.70;60.90;;;;;;5135150;27;20193;-79
2023/06/20 12:08:25;;;;;;;11.70;2.38;;;23.70;61.10;;;;;;5106155;27;20220;-78
2023/06/20 12:11:02;;;;;;;5.35;2.22;;;23.70;61.10;;;;;;5135457;27;20329;-78
2023/06/20 12:13:33;;;;;;;6.03;2.40;;;23.80;61.30;;;;;;5132103;27;20215;-76
2023/06/20 12:16:01;;;;;;;6.57;2.40;;;23.80;61.30;;;;;;5133490;27;20733;-79
2023/06/20 12:18:31;;;;;;;5.47;2.60;;;23.80;61.30;;;;;;5134785;27;20265;-79
2023/06/20 12:20:59;;;;;;;3.55;2.20;;;23.80;61.30;;;;;;5137904;27;20649;-79
2023/06/20 12:23:26;;;;;;;3.58;2.55;;;23.80;61.20;;;;;;5135160;27;20279;-80
2023/06/20 12:25:55;;;;;;;5.57;2.20;;;23.80;61.10;;;;;;5140105;27;20196;-80
2023/06/20 12:28:24;;;;;;;3.20;2.10;;;23.80;61.20;;;;;;5141364;27;20195;-79
2023/06/20 12:30:51;;;;;;;9.65;2.65;;;23.80;61.20;;;;;;5133630;27;20184;-80
2023/06/20 12:33:18;;;;;;;5.53;2.20;;;23.80;61.20;;;;;;5127836;27;20249;-80
2023/06/20 12:35:46;;;;;;;3.15;2.30;;;23.80;61.10;;;;;;5135900;27;20273;-79
2023/06/20 12:38:13;;;;;;;4.60;2.08;;;23.80;61.10;;;;;;5136274;27;20202;-80
2023/06/20 12:40:41;;;;;;;5.38;2.40;;;23.80;61.30;;;;;;5132001;27;20181;-80
2023/06/20 12:43:10;;;;;;;4.03;2.30;;;23.80;61.30;;;;;;5131011;27;20207;-79
2023/06/20 12:45:39;;;;;;;11.48;2.92;;;23.90;61.40;;;;;;5076663;27;20306;-80
2023/06/20 12:48:07;;;;;;;16.05;8.43;;;23.90;61.30;;;;;;5146042;27;20187;-79
2023/06/20 12:50:35;;;;;;;19.27;10.13;;;23.80;60.90;;;;;;5134723;27;20303;-80
2023/06/20 12:53:04;;;;;;;26.88;14.57;;;23.80;61.00;;;;;;5134027;27;20581;-80
2023/06/20 12:55:32;;;;;;;29.75;16.67;;;23.90;61.30;;;;;;5091576;27;20220;-79
2023/06/20 12:57:59;;;;;;;44.30;24.27;;;23.90;61.20;;;;;;5137911;27;20203;-78
2023/06/20 13:00:28;;;;;;;65.07;36.95;;;23.90;61.30;;;;;;5140033;27;20728;-81
2023/06/20 13:02:56;;;;;;;46.75;26.38;;;23.90;61.30;;;;;;5136484;27;20184;-84
2023/06/20 13:05:23;;;;;;;31.55;19.90;;;23.90;61.30;;;;;;5135546;27;20224;-79
2023/06/20 13:07:50;;;;;;;31.45;16.88;;;24.00;61.50;;;;;;5133687;27;20274;-79
2023/06/20 13:13:02;;;;;;;20.60;13.35;;;24.00;61.50;;;;;;5136421;27;20200;-80
2023/06/20 13:15:32;;;;;;;18.75;11.52;;;23.90;61.40;;;;;;5134338;27;20209;-78
2023/06/20 13:18:04;;;;;;;17.15;9.82;;;24.00;61.40;;;;;;5141683;27;20200;-79
2023/06/20 13:20:32;;;;;;;24.80;11.07;;;24.00;61.50;;;;;;5140819;27;21049;-79
2023/06/20 13:23:00;;;;;;;16.02;8.38;;;24.00;61.40;;;;;;5134708;27;20232;-80
2023/06/20 13:25:27;;;;;;;17.90;8.88;;;24.00;61.30;;;;;;5129903;27;20216;-81
2023/06/20 13:27:55;;;;;;;15.63;8.50;;;24.00;61.30;;;;;;5131570;27;20196;-81
2023/06/20 13:30:22;;;;;;;21.27;8.75;;;24.00;61.30;;;;;;5135401;27;20227;-81
2023/06/20 13:32:49;;;;;;;15.57;8.27;;;24.00;61.40;;;;;;5137912;27;20195;-79
2023/06/20 13:35:21;;;;;;;16.13;8.00;;;24.00;61.50;;;;;;5132629;27;20216;-80
2023/06/20 13:37:48;;;;;;;12.13;7.45;;;24.00;61.50;;;;;;5122577;27;20213;-79
2023/06/20 13:40:15;;;;;;;11.90;7.03;;;24.00;61.50;;;;;;5119963;27;20303;-79
2023/06/20 13:42:44;;;;;;;14.55;7.07;;;24.10;61.40;;;;;;5130143;27;20283;-80
2023/06/20 13:45:15;;;;;;;10.52;6.05;;;24.10;62.30;;;;;;5130302;27;20600;-81
2023/06/20 13:47:42;;;;;;;9.32;5.32;;;24.10;61.30;;;;;;5022190;27;20895;-79
2023/06/20 13:50:10;;;;;;;12.32;5.88;;;24.10;61.20;;;;;;5129873;27;20223;-78
2023/06/20 13:52:39;;;;;;;10.43;5.88;;;24.10;61.00;;;;;;5142152;27;20192;-79
2023/06/20 13:55:07;;;;;;;8.30;5.78;;;24.10;61.30;;;;;;5134451;27;20302;-82
2023/06/20 13:57:35;;;;;;;20.65;5.40;;;24.20;61.40;;;;;;5113584;27;20230;-80
2023/06/20 14:00:06;;;;;;;15.25;5.25;;;24.10;61.30;;;;;;5134737;27;20302;-80
2023/06/20 14:02:33;;;;;;;9.48;5.30;;;24.20;61.50;;;;;;5139902;27;20186;-77
2023/06/20 14:05:00;;;;;;;10.73;5.07;;;24.20;61.40;;;;;;5135246;27;20286;-80
2023/06/20 14:07:28;;;;;;;13.75;5.30;;;24.20;61.40;;;;;;5131311;27;20709;-78
2023/06/20 14:09:58;;;;;;;13.20;4.63;;;24.20;61.30;;;;;;5127896;27;20224;-87
2023/06/20 14:12:27;;;;;;;9.80;5.07;;;24.20;61.30;;;;;;5123828;27;20200;-83
2023/06/20 14:15:02;;;;;;;8.02;4.25;;;24.20;61.10;;;;;;5133570;27;20218;-81
2023/06/20 14:17:31;;;;;;;11.70;4.10;;;24.20;61.00;;;;;;5098982;27;20650;-80
2023/06/20 14:20:02;;;;;;;6.22;4.00;;;24.20;60.90;;;;;;5124554;27;20224;-80
2023/06/20 14:22:33;;;;;;;9.20;3.97;;;24.20;60.80;;;;;;5090423;27;20689;-80
2023/06/20 14:25:08;;;;;;;10.00;4.03;;;24.20;60.70;;;;;;5124965;27;20248;-81
2023/06/20 14:27:42;;;;;;;6.05;3.60;;;24.20;60.60;;;;;;5085012;27;20192;-79
2023/06/20 14:30:36;;;;;;;7.20;3.17;;;24.30;60.70;;;;;;5135867;27;21093;-87